createdAt,value
2022-10-07T00:01:54.711Z,10.25
2022-10-07T00:04:56.193Z,10.25
2022-10-07T00:07:57.644Z,10.27
2022-10-07T00:11:03.055Z,10.25
2022-10-07T00:14:05.041Z,10.28
2022-10-07T00:17:06.558Z,10.33
2022-10-07T00:20:08.433Z,10.34
2022-10-07T00:23:09.896Z,10.27
2022-10-07T00:26:12.636Z,10.26
2022-10-07T00:29:14.101Z,10.17
2022-10-07T00:32:15.587Z,10.17
2022-10-07T00:35:16.992Z,10.17
2022-10-07T00:38:18.341Z,10.22
2022-10-07T00:41:20.591Z,10.24
2022-10-07T00:44:31.117Z,10.28
2022-10-07T00:47:33.554Z,10.31
2022-10-07T00:50:34.891Z,10.32
2022-10-07T00:53:36.777Z,10.36
2022-10-07T00:56:38.094Z,10.35
2022-10-07T00:59:40.157Z,10.36
2022-10-07T01:02:41.603Z,10.34
2022-10-07T01:05:43.771Z,10.38
2022-10-07T01:08:45.491Z,10.44
2022-10-07T01:11:52.695Z,10.43
2022-10-07T01:15:01.792Z,10.39
2022-10-07T01:18:06.210Z,10.36
2022-10-07T01:21:08.482Z,10.34
2022-10-07T01:24:33.349Z,10.36
2022-10-07T01:27:34.700Z,10.30
2022-10-07T01:30:36.660Z,10.30
2022-10-07T01:33:38.106Z,10.25
2022-10-07T01:36:39.569Z,10.27
2022-10-07T01:39:42.547Z,10.28
2022-10-07T01:42:44.103Z,10.33
2022-10-07T01:45:45.543Z,10.39
2022-10-07T01:48:47.077Z,10.42
2022-10-07T01:51:51.849Z,10.48
2022-10-07T01:55:09.138Z,10.48
2022-10-07T01:58:13.512Z,10.45
2022-10-07T02:01:19.561Z,10.43
2022-10-07T02:04:26.937Z,10.48
2022-10-07T02:07:54.651Z,10.50
2022-10-07T02:11:01.994Z,10.57
2022-10-07T02:14:16.508Z,10.63
2022-10-07T02:17:18.351Z,10.58
2022-10-07T02:20:19.703Z,10.56
2022-10-07T02:23:21.108Z,10.56
2022-10-07T02:26:22.450Z,10.57
2022-10-07T02:29:23.869Z,10.53
2022-10-07T02:32:25.424Z,10.56
2022-10-07T02:35:28.719Z,10.53
2022-10-07T02:38:30.056Z,10.56
2022-10-07T02:41:35.918Z,10.58
2022-10-07T02:44:37.297Z,10.58
2022-10-07T02:47:41.856Z,10.57
2022-10-07T02:50:44.011Z,10.59
2022-10-07T02:53:46.057Z,10.59
2022-10-07T02:56:47.427Z,10.65
2022-10-07T02:59:49.303Z,10.67
2022-10-07T03:03:02.490Z,10.70
2022-10-07T03:06:04.592Z,10.73
2022-10-07T03:09:06.914Z,10.74
2022-10-07T03:12:08.589Z,10.74
2022-10-07T03:15:11.708Z,10.75
2022-10-07T03:18:26.583Z,10.74
2022-10-07T03:21:28.185Z,10.74
2022-10-07T03:24:31.118Z,10.76
2022-10-07T03:27:32.501Z,10.77
2022-10-07T03:30:34.234Z,10.81
2022-10-07T03:33:37.295Z,10.76
2022-10-07T03:36:39.290Z,10.78
2022-10-07T03:39:40.714Z,10.74
2022-10-07T03:42:43.233Z,10.74
2022-10-07T03:45:44.981Z,10.74
2022-10-07T03:48:46.441Z,10.74
2022-10-07T03:51:47.795Z,10.75
2022-10-07T03:54:49.309Z,10.75
2022-10-07T03:57:51.832Z,10.75
2022-10-07T04:01:04.254Z,10.76
2022-10-07T04:04:07.597Z,10.75
2022-10-07T04:07:08.916Z,10.80
2022-10-07T04:10:10.567Z,10.76
2022-10-07T04:13:11.911Z,10.75
2022-10-07T04:16:13.361Z,10.78
2022-10-07T04:19:14.814Z,10.79
2022-10-07T04:22:16.148Z,10.77
2022-10-07T04:25:36.652Z,10.77
2022-10-07T04:28:38.096Z,10.79
2022-10-07T04:31:39.630Z,10.75
2022-10-07T04:34:41.056Z,10.74
2022-10-07T04:37:43.577Z,10.73
2022-10-07T04:40:46.314Z,10.74
2022-10-07T04:43:55.271Z,10.74
2022-10-07T04:46:58.200Z,10.73
2022-10-07T04:49:59.618Z,10.75
2022-10-07T04:53:01.407Z,10.74
2022-10-07T04:56:02.751Z,10.76
2022-10-07T04:59:04.098Z,10.75
2022-10-07T05:02:05.595Z,10.78
2022-10-07T05:05:07.592Z,10.78
2022-10-07T05:08:09.048Z,10.81
2022-10-07T05:11:10.412Z,10.84
2022-10-07T05:14:11.834Z,10.82
2022-10-07T05:17:13.767Z,10.82
2022-10-07T05:20:15.162Z,10.80
2022-10-07T05:23:17.006Z,10.84
2022-10-07T05:26:18.416Z,10.84
2022-10-07T05:29:19.788Z,10.82
2022-10-07T05:32:21.306Z,10.83
2022-10-07T05:35:22.672Z,10.81
2022-10-07T05:38:24.210Z,10.82
2022-10-07T05:41:28.033Z,10.85
2022-10-07T05:44:32.157Z,10.86
2022-10-07T05:47:34.048Z,10.87
2022-10-07T05:50:35.453Z,10.88
2022-10-07T05:53:36.828Z,10.91
2022-10-07T05:56:38.218Z,10.93
2022-10-07T05:59:39.608Z,10.94
2022-10-07T06:02:41.095Z,10.92
2022-10-07T06:05:42.482Z,10.94
2022-10-07T06:08:43.866Z,10.94
2022-10-07T06:12:04.029Z,10.92
2022-10-07T06:15:05.659Z,10.97
2022-10-07T06:18:07.080Z,10.97
2022-10-07T06:21:08.551Z,10.99
2022-10-07T06:24:10.233Z,10.97
2022-10-07T06:27:11.576Z,10.96
2022-10-07T06:30:13.179Z,11.00
2022-10-07T06:33:14.625Z,11.00
2022-10-07T06:36:16.093Z,11.00
2022-10-07T06:39:17.985Z,11.01
2022-10-07T06:42:19.402Z,10.92
2022-10-07T06:45:20.810Z,10.93
2022-10-07T06:48:23.097Z,10.98
2022-10-07T06:51:24.461Z,10.97
2022-10-07T06:54:26.006Z,10.97
2022-10-07T06:57:56.119Z,11.00
2022-10-07T07:00:50.147Z,11.04
2022-10-07T07:03:51.584Z,11.16
2022-10-07T07:06:53.434Z,11.19
2022-10-07T07:09:54.789Z,11.22
2022-10-07T07:12:56.163Z,11.30
2022-10-07T07:15:58.096Z,11.38
2022-10-07T07:19:01.776Z,11.39
2022-10-07T07:22:03.320Z,11.47
2022-10-07T07:25:04.954Z,11.59
2022-10-07T07:28:07.004Z,11.69
2022-10-07T07:31:12.833Z,11.78
2022-10-07T07:34:14.313Z,11.90
2022-10-07T07:37:16.426Z,12.05
2022-10-07T07:40:18.047Z,12.14
2022-10-07T07:43:19.436Z,12.27
2022-10-07T07:46:21.984Z,12.35
2022-10-07T07:49:23.593Z,12.53
2022-10-07T07:52:25.627Z,12.70
2022-10-07T07:55:27.099Z,12.73
2022-10-07T07:58:28.516Z,12.85
2022-10-07T08:01:33.095Z,12.97
2022-10-07T08:04:34.506Z,13.10
2022-10-07T08:07:35.906Z,13.23
2022-10-07T08:10:37.314Z,13.35
2022-10-07T08:13:41.871Z,13.51
2022-10-07T08:16:48.629Z,13.68
2022-10-07T08:19:50.325Z,13.86
2022-10-07T08:22:54.532Z,14.08
2022-10-07T08:25:59.805Z,14.33
2022-10-07T08:29:01.524Z,14.51
2022-10-07T08:32:02.896Z,15.02
2022-10-07T08:35:04.426Z,15.17
2022-10-07T08:38:05.762Z,15.18
2022-10-07T08:41:07.074Z,15.44
2022-10-07T08:44:17.712Z,15.90
2022-10-07T08:47:21.840Z,16.06
2022-10-07T08:50:31.850Z,16.35
2022-10-07T08:53:36.854Z,16.63
2022-10-07T08:56:38.215Z,16.78
2022-10-07T08:59:39.615Z,16.99
2022-10-07T09:02:44.873Z,17.39
2022-10-07T09:05:46.884Z,17.68
2022-10-07T09:08:48.552Z,17.86
2022-10-07T09:11:50.070Z,17.91
2022-10-07T09:14:55.306Z,18.34
2022-10-07T09:17:58.406Z,18.20
2022-10-07T09:20:59.779Z,18.30
2022-10-07T09:24:05.978Z,18.75
2022-10-07T09:27:09.063Z,19.19
2022-10-07T09:30:12.576Z,20.16
2022-10-07T09:33:18.625Z,19.99
2022-10-07T09:36:20.243Z,19.92
2022-10-07T09:39:26.409Z,19.42
2022-10-07T09:42:31.878Z,18.89
2022-10-07T09:45:33.387Z,19.18
2022-10-07T09:48:34.799Z,18.66
2022-10-07T09:51:36.213Z,18.07
2022-10-07T09:54:37.629Z,18.21
2022-10-07T09:57:39.118Z,17.76
2022-10-07T10:00:44.013Z,18.38
2022-10-07T10:03:45.502Z,18.70
2022-10-07T10:06:47.844Z,18.43
2022-10-07T10:10:12.548Z,18.61
2022-10-07T10:13:22.613Z,18.59
2022-10-07T10:16:37.471Z,18.76
2022-10-07T10:19:38.851Z,18.73
2022-10-07T10:22:40.192Z,18.94
2022-10-07T10:26:19.128Z,19.17
2022-10-07T10:29:20.500Z,18.74
2022-10-07T10:32:31.321Z,19.57
2022-10-07T10:35:34.535Z,19.61
2022-10-07T10:38:38.082Z,19.58
2022-10-07T10:41:43.198Z,19.97
2022-10-07T10:44:44.603Z,19.91
2022-10-07T10:48:13.459Z,20.52
2022-10-07T10:51:14.797Z,20.58
2022-10-07T10:54:32.261Z,21.18
2022-10-07T10:57:40.832Z,21.14
2022-10-07T11:01:14.565Z,21.37
2022-10-07T11:04:34.360Z,21.47
2022-10-07T11:07:36.683Z,21.72
2022-10-07T11:10:40.693Z,21.78
2022-10-07T11:13:43.577Z,21.02
2022-10-07T11:16:46.976Z,20.39
2022-10-07T11:20:03.129Z,21.74
2022-10-07T11:23:04.465Z,21.58
2022-10-07T11:26:18.143Z,20.91
2022-10-07T11:29:28.673Z,21.29
2022-10-07T11:32:38.720Z,20.97
2022-10-07T11:35:44.086Z,20.43
2022-10-07T11:38:45.519Z,20.33
2022-10-07T11:41:55.369Z,20.57
2022-10-07T11:45:03.126Z,20.41
2022-10-07T11:48:08.774Z,20.16
2022-10-07T11:51:10.160Z,20.26
2022-10-07T11:54:13.635Z,19.90
2022-10-07T11:57:21.806Z,19.31
2022-10-07T12:00:24.262Z,19.61
2022-10-07T12:03:25.650Z,19.88
2022-10-07T12:06:27.298Z,19.81
2022-10-07T12:09:47.573Z,20.25
2022-10-07T12:12:49.870Z,20.05
2022-10-07T12:15:51.371Z,19.60
2022-10-07T12:19:08.309Z,19.04
2022-10-07T12:22:09.650Z,19.46
2022-10-07T12:25:28.638Z,19.48
2022-10-07T12:28:40.209Z,19.36
2022-10-07T12:31:41.708Z,19.38
2022-10-07T12:34:43.576Z,19.12
2022-10-07T12:37:45.479Z,18.70
2022-10-07T12:41:07.078Z,18.82
2022-10-07T12:44:08.492Z,18.51
2022-10-07T12:47:09.947Z,18.78
2022-10-07T12:50:12.819Z,19.03
2022-10-07T12:53:14.264Z,19.00
2022-10-07T12:56:21.052Z,18.53
2022-10-07T12:59:50.353Z,18.65
2022-10-07T13:03:10.116Z,18.70
2022-10-07T13:06:17.596Z,18.96
2022-10-07T13:09:37.464Z,19.16
2022-10-07T13:12:38.791Z,18.97
2022-10-07T13:15:42.637Z,18.99
2022-10-07T13:18:45.379Z,19.30
2022-10-07T13:21:47.888Z,19.22
2022-10-07T13:24:51.101Z,19.78
2022-10-07T13:27:53.853Z,20.34
2022-10-07T13:30:55.248Z,20.23
2022-10-07T13:33:57.531Z,20.49
2022-10-07T13:36:58.862Z,21.15
2022-10-07T13:40:19.482Z,21.39
2022-10-07T13:43:20.853Z,21.37
2022-10-07T13:46:23.822Z,21.17
2022-10-07T13:49:51.581Z,20.22
2022-10-07T13:52:53.330Z,20.18
2022-10-07T13:56:13.902Z,20.71
2022-10-07T13:59:18.505Z,20.92
2022-10-07T14:02:20.596Z,19.92
2022-10-07T14:05:22.285Z,19.58
2022-10-07T14:08:24.402Z,19.69
2022-10-07T14:11:25.768Z,19.22
2022-10-07T14:14:36.104Z,19.26
2022-10-07T14:17:43.845Z,19.22
2022-10-07T14:20:51.950Z,19.55
2022-10-07T14:23:53.338Z,19.13
2022-10-07T14:26:54.792Z,18.59
2022-10-07T14:29:58.440Z,18.81
2022-10-07T14:33:22.152Z,18.65
2022-10-07T14:36:23.531Z,20.00
2022-10-07T14:39:30.653Z,20.43
2022-10-07T14:42:34.852Z,21.07
2022-10-07T14:45:36.238Z,20.94
2022-10-07T14:48:37.845Z,20.95
2022-10-07T14:51:39.234Z,20.73
2022-10-07T14:54:40.749Z,19.63
2022-10-07T14:57:42.680Z,18.99
2022-10-07T15:00:44.016Z,18.95
2022-10-07T15:03:48.734Z,18.82
2022-10-07T15:06:50.980Z,18.41
2022-10-07T15:09:52.570Z,18.32
2022-10-07T15:12:54.399Z,18.50
2022-10-07T15:15:55.924Z,18.40
2022-10-07T15:19:02.094Z,18.46
2022-10-07T15:22:03.483Z,18.39
2022-10-07T15:25:05.557Z,18.41
2022-10-07T15:28:07.000Z,18.44
2022-10-07T15:31:09.286Z,18.40
2022-10-07T15:34:10.800Z,18.52
2022-10-07T15:37:12.175Z,18.42
2022-10-07T15:40:14.693Z,18.48
2022-10-07T15:43:16.160Z,18.35
2022-10-07T15:46:17.863Z,18.45
2022-10-07T15:49:19.553Z,18.43
2022-10-07T15:52:20.908Z,18.25
2022-10-07T15:55:22.316Z,18.04
2022-10-07T15:58:24.549Z,17.66
2022-10-07T16:01:31.564Z,17.32
2022-10-07T16:04:33.164Z,17.22
2022-10-07T16:07:34.607Z,17.09
2022-10-07T16:10:36.439Z,16.91
2022-10-07T16:13:38.234Z,16.68
2022-10-07T16:16:40.793Z,16.60
2022-10-07T16:19:42.158Z,16.46
2022-10-07T16:22:43.825Z,16.36
2022-10-07T16:25:45.428Z,16.29
2022-10-07T16:29:06.094Z,16.12
2022-10-07T16:32:10.669Z,15.96
2022-10-07T16:35:12.337Z,15.89
2022-10-07T16:38:13.686Z,15.75
2022-10-07T16:41:15.029Z,15.60
2022-10-07T16:44:16.415Z,15.46
2022-10-07T16:47:17.892Z,15.38
2022-10-07T16:50:20.982Z,15.27
2022-10-07T16:53:22.358Z,15.21
2022-10-07T16:56:23.755Z,15.14
2022-10-07T16:59:25.142Z,15.05
2022-10-07T17:02:30.127Z,14.96
2022-10-07T17:05:31.502Z,14.85
2022-10-07T17:08:37.579Z,14.76
2022-10-07T17:11:41.873Z,14.65
2022-10-07T17:14:43.309Z,14.50
2022-10-07T17:17:45.218Z,14.44
2022-10-07T17:20:53.201Z,14.35
2022-10-07T17:23:58.300Z,14.29
2022-10-07T17:26:59.684Z,14.24
2022-10-07T17:30:01.128Z,14.07
2022-10-07T17:33:02.490Z,13.87
2022-10-07T17:36:06.734Z,13.80
2022-10-07T17:39:10.461Z,13.76
2022-10-07T17:42:11.799Z,13.71
2022-10-07T17:45:13.395Z,13.72
2022-10-07T17:48:15.366Z,13.68
2022-10-07T17:51:20.170Z,13.62
2022-10-07T17:54:21.554Z,13.55
2022-10-07T17:57:23.175Z,13.46
2022-10-07T18:00:24.775Z,13.35
2022-10-07T18:03:26.456Z,13.27
2022-10-07T18:06:28.793Z,13.26
2022-10-07T18:09:30.203Z,13.21
2022-10-07T18:12:50.283Z,13.11
2022-10-07T18:16:00.561Z,12.99
2022-10-07T18:19:01.992Z,12.98
2022-10-07T18:22:03.400Z,12.99
2022-10-07T18:25:04.956Z,12.95
2022-10-07T18:28:07.517Z,12.83
2022-10-07T18:31:12.078Z,12.75
2022-10-07T18:34:13.777Z,12.71
2022-10-07T18:37:15.125Z,12.68
2022-10-07T18:40:16.512Z,12.62
2022-10-07T18:43:17.860Z,12.58
2022-10-07T18:46:19.248Z,12.56
2022-10-07T18:49:20.667Z,12.56
2022-10-07T18:52:22.028Z,12.54
2022-10-07T18:55:23.433Z,12.59
2022-10-07T18:58:24.791Z,12.53
2022-10-07T19:01:27.973Z,12.48
2022-10-07T19:04:29.862Z,12.43
2022-10-07T19:07:31.328Z,12.41
2022-10-07T19:10:39.509Z,12.40
2022-10-07T19:13:53.439Z,12.33
2022-10-07T19:16:54.866Z,12.34
2022-10-07T19:20:01.516Z,12.36
2022-10-07T19:23:03.610Z,12.33
2022-10-07T19:26:05.461Z,12.32
2022-10-07T19:29:06.959Z,12.38
2022-10-07T19:32:09.016Z,12.40
2022-10-07T19:35:10.594Z,12.43
2022-10-07T19:38:12.161Z,12.43
2022-10-07T19:41:14.196Z,12.37
2022-10-07T19:44:16.318Z,12.32
2022-10-07T19:47:18.309Z,12.32
2022-10-07T19:50:19.699Z,12.33
2022-10-07T19:53:21.043Z,12.29
2022-10-07T19:56:26.372Z,12.34
2022-10-07T19:59:27.813Z,12.32
2022-10-07T20:02:29.226Z,12.29
2022-10-07T20:05:31.686Z,12.27
2022-10-07T20:08:34.211Z,12.30
2022-10-07T20:11:36.239Z,12.25
2022-10-07T20:14:37.628Z,12.27
2022-10-07T20:17:39.419Z,12.19
2022-10-07T20:20:40.760Z,12.16
2022-10-07T20:23:42.765Z,12.13
2022-10-07T20:26:44.219Z,12.14
2022-10-07T20:29:57.751Z,12.06
2022-10-07T20:32:59.119Z,12.01
2022-10-07T20:36:03.618Z,11.97
2022-10-07T20:39:43.640Z,12.02
2022-10-07T20:42:47.065Z,12.09
2022-10-07T20:45:59.119Z,12.14
2022-10-07T20:49:00.609Z,12.11
2022-10-07T20:52:02.586Z,12.08
2022-10-07T20:55:04.079Z,12.13
2022-10-07T20:58:05.501Z,12.14
2022-10-07T21:01:07.075Z,12.14
2022-10-07T21:04:08.897Z,12.16
2022-10-07T21:07:10.305Z,12.17
2022-10-07T21:10:11.669Z,12.14
2022-10-07T21:13:15.562Z,12.14
2022-10-07T21:16:17.682Z,12.09
2022-10-07T21:19:19.056Z,12.10
2022-10-07T21:22:20.497Z,12.09
2022-10-07T21:25:21.865Z,12.04
2022-10-07T21:28:25.147Z,12.09
2022-10-07T21:31:27.177Z,12.12
2022-10-07T21:34:29.882Z,12.11
2022-10-07T21:37:31.262Z,12.12
2022-10-07T21:40:32.618Z,12.14
2022-10-07T21:43:33.931Z,12.10
2022-10-07T21:46:36.715Z,12.13
2022-10-07T21:49:38.128Z,12.07
2022-10-07T21:52:39.474Z,12.04
2022-10-07T21:55:40.837Z,12.00
2022-10-07T21:58:42.192Z,11.99
2022-10-07T22:01:43.693Z,11.92
2022-10-07T22:04:45.106Z,11.90
2022-10-07T22:08:05.182Z,11.90
2022-10-07T22:11:10.685Z,11.84
2022-10-07T22:14:12.994Z,11.78
2022-10-07T22:17:14.592Z,11.76
2022-10-07T22:20:15.911Z,11.75
2022-10-07T22:23:17.717Z,11.74
2022-10-07T22:26:19.626Z,11.76
2022-10-07T22:29:21.768Z,11.76
2022-10-07T22:32:23.216Z,11.75
2022-10-07T22:35:27.622Z,11.73
2022-10-07T22:38:29.016Z,11.75
2022-10-07T22:41:30.943Z,11.74
2022-10-07T22:44:32.354Z,11.72
2022-10-07T22:47:34.482Z,11.69
2022-10-07T22:50:36.197Z,11.67
2022-10-07T22:53:39.735Z,11.66
2022-10-07T22:56:41.150Z,11.64
2022-10-07T22:59:42.477Z,11.63
2022-10-07T23:02:44.765Z,11.58
2022-10-07T23:05:50.401Z,11.58
2022-10-07T23:08:51.737Z,11.49
2022-10-07T23:11:53.126Z,11.47
2022-10-07T23:14:54.534Z,11.45
2022-10-07T23:17:55.874Z,11.41
2022-10-07T23:20:58.125Z,11.38
2022-10-07T23:24:05.902Z,11.33
2022-10-07T23:27:10.737Z,11.32
2022-10-07T23:30:12.305Z,11.25
2022-10-07T23:33:13.804Z,11.26
2022-10-07T23:36:15.992Z,11.27
2022-10-07T23:39:17.413Z,11.22
2022-10-07T23:42:18.758Z,11.20
2022-10-07T23:45:20.096Z,11.18
2022-10-07T23:48:21.503Z,11.17
2022-10-07T23:51:23.247Z,11.13
2022-10-07T23:54:24.562Z,11.12
2022-10-07T23:57:26.009Z,11.13
